sensor_id;sensor_type;location;lat;lon;timestamp;P1;durP1;ratioP1;P2;durP2;ratioP2
76228;SDS011;65021;53.174;18.160;2023-08-21T00:00:29;11.20;;;7.60;;
76228;SDS011;65021;53.174;18.160;2023-08-21T00:03:15;10.90;;;7.50;;
76228;SDS011;65021;53.174;18.160;2023-08-21T00:05:42;12.10;;;7.20;;
76228;SDS011;65021;53.174;18.160;2023-08-21T00:08:09;9.70;;;6.00;;
76228;SDS011;65021;53.174;18.160;2023-08-21T00:10:38;15.10;;;8.70;;
76228;SDS011;65021;53.174;18.160;2023-08-21T00:13:05;9.70;;;7.30;;
76228;SDS011;65021;53.174;18.160;2023-08-21T00:15:32;11.00;;;7.70;;
76228;SDS011;65021;53.174;18.160;2023-08-21T00:17:59;8.90;;;6.00;;
76228;SDS011;65021;53.174;18.160;2023-08-21T00:20:26;12.90;;;9.00;;
76228;SDS011;65021;53.174;18.160;2023-08-21T00:22:53;12.60;;;8.20;;
76228;SDS011;65021;53.174;18.160;2023-08-21T00:25:20;7.70;;;4.80;;
76228;SDS011;65021;53.174;18.160;2023-08-21T00:27:48;10.30;;;7.60;;
76228;SDS011;65021;53.174;18.160;2023-08-21T00:30:15;12.60;;;7.90;;
76228;SDS011;65021;53.174;18.160;2023-08-21T00:32:41;14.60;;;8.50;;
76228;SDS011;65021;53.174;18.160;2023-08-21T00:35:08;8.30;;;5.60;;
76228;SDS011;65021;53.174;18.160;2023-08-21T00:37:38;9.90;;;6.60;;
76228;SDS011;65021;53.174;18.160;2023-08-21T00:40:05;11.50;;;7.30;;
76228;SDS011;65021;53.174;18.160;2023-08-21T00:42:32;8.70;;;6.20;;
76228;SDS011;65021;53.174;18.160;2023-08-21T00:44:58;11.20;;;7.80;;
76228;SDS011;65021;53.174;18.160;2023-08-21T00:47:25;11.00;;;7.70;;
76228;SDS011;65021;53.174;18.160;2023-08-21T00:49:51;12.40;;;9.10;;
76228;SDS011;65021;53.174;18.160;2023-08-21T00:52:18;13.70;;;9.10;;
76228;SDS011;65021;53.174;18.160;2023-08-21T00:54:45;12.90;;;8.10;;
76228;SDS011;65021;53.174;18.160;2023-08-21T00:57:11;11.20;;;7.50;;
76228;SDS011;65021;53.174;18.160;2023-08-21T00:59:38;13.00;;;8.20;;
76228;SDS011;65021;53.174;18.160;2023-08-21T01:02:05;11.70;;;7.90;;
76228;SDS011;65021;53.174;18.160;2023-08-21T01:04:32;11.00;;;7.60;;
76228;SDS011;65021;53.174;18.160;2023-08-21T01:06:58;12.20;;;7.70;;
76228;SDS011;65021;53.174;18.160;2023-08-21T01:09:27;10.90;;;7.30;;
76228;SDS011;65021;53.174;18.160;2023-08-21T01:15:06;12.00;;;7.50;;
76228;SDS011;65021;53.174;18.160;2023-08-21T01:17:36;11.70;;;7.50;;
76228;SDS011;65021;53.174;18.160;2023-08-21T01:20:05;11.30;;;7.10;;
76228;SDS011;65021;53.174;18.160;2023-08-21T01:22:38;12.30;;;7.30;;
76228;SDS011;65021;53.174;18.160;2023-08-21T01:25:06;10.60;;;6.50;;
76228;SDS011;65021;53.174;18.160;2023-08-21T01:27:37;10.20;;;6.90;;
76228;SDS011;65021;53.174;18.160;2023-08-21T01:30:07;10.80;;;7.20;;
76228;SDS011;65021;53.174;18.160;2023-08-21T01:35:14;9.70;;;6.60;;
76228;SDS011;65021;53.174;18.160;2023-08-21T01:37:41;10.50;;;7.00;;
76228;SDS011;65021;53.174;18.160;2023-08-21T01:40:09;12.20;;;7.40;;
76228;SDS011;65021;53.174;18.160;2023-08-21T01:42:36;10.90;;;6.80;;
76228;SDS011;65021;53.174;18.160;2023-08-21T01:45:02;10.80;;;6.80;;
76228;SDS011;65021;53.174;18.160;2023-08-21T01:47:29;11.10;;;6.90;;
76228;SDS011;65021;53.174;18.160;2023-08-21T01:49:55;12.30;;;7.10;;
76228;SDS011;65021;53.174;18.160;2023-08-21T01:52:22;9.90;;;6.80;;
76228;SDS011;65021;53.174;18.160;2023-08-21T01:54:50;13.60;;;7.80;;
76228;SDS011;65021;53.174;18.160;2023-08-21T01:57:16;9.00;;;5.80;;
76228;SDS011;65021;53.174;18.160;2023-08-21T01:59:43;10.60;;;6.40;;
76228;SDS011;65021;53.174;18.160;2023-08-21T02:02:10;9.80;;;6.40;;
76228;SDS011;65021;53.174;18.160;2023-08-21T02:04:36;10.60;;;7.20;;
76228;SDS011;65021;53.174;18.160;2023-08-21T02:07:03;10.00;;;5.80;;
76228;SDS011;65021;53.174;18.160;2023-08-21T02:09:29;9.80;;;6.10;;
76228;SDS011;65021;53.174;18.160;2023-08-21T02:11:56;9.50;;;5.80;;
76228;SDS011;65021;53.174;18.160;2023-08-21T02:14:22;8.40;;;5.20;;
76228;SDS011;65021;53.174;18.160;2023-08-21T02:16:49;11.10;;;6.50;;
76228;SDS011;65021;53.174;18.160;2023-08-21T02:19:15;11.10;;;5.70;;
76228;SDS011;65021;53.174;18.160;2023-08-21T02:21:42;9.30;;;6.20;;
76228;SDS011;65021;53.174;18.160;2023-08-21T02:24:09;7.80;;;4.60;;
76228;SDS011;65021;53.174;18.160;2023-08-21T02:26:35;12.60;;;5.90;;
76228;SDS011;65021;53.174;18.160;2023-08-21T02:29:02;9.60;;;6.00;;
76228;SDS011;65021;53.174;18.160;2023-08-21T02:31:30;8.60;;;5.80;;
76228;SDS011;65021;53.174;18.160;2023-08-21T02:33:56;8.20;;;4.80;;
76228;SDS011;65021;53.174;18.160;2023-08-21T02:36:23;9.80;;;5.20;;
76228;SDS011;65021;53.174;18.160;2023-08-21T02:38:49;8.40;;;5.20;;
76228;SDS011;65021;53.174;18.160;2023-08-21T02:41:16;11.80;;;4.90;;
76228;SDS011;65021;53.174;18.160;2023-08-21T02:43:44;7.70;;;4.70;;
76228;SDS011;65021;53.174;18.160;2023-08-21T02:46:10;8.30;;;5.00;;
76228;SDS011;65021;53.174;18.160;2023-08-21T02:48:37;8.70;;;5.10;;
76228;SDS011;65021;53.174;18.160;2023-08-21T02:51:04;8.00;;;4.90;;
76228;SDS011;65021;53.174;18.160;2023-08-21T02:53:30;9.30;;;5.70;;
76228;SDS011;65021;53.174;18.160;2023-08-21T02:55:57;9.10;;;5.40;;
76228;SDS011;65021;53.174;18.160;2023-08-21T02:58:23;13.50;;;6.30;;
76228;SDS011;65021;53.174;18.160;2023-08-21T03:00:50;9.50;;;6.10;;
76228;SDS011;65021;53.174;18.160;2023-08-21T03:03:16;11.00;;;6.20;;
76228;SDS011;65021;53.174;18.160;2023-08-21T03:05:43;11.50;;;6.70;;
76228;SDS011;65021;53.174;18.160;2023-08-21T03:08:10;12.00;;;6.20;;
76228;SDS011;65021;53.174;18.160;2023-08-21T03:10:37;10.60;;;6.50;;
76228;SDS011;65021;53.174;18.160;2023-08-21T03:13:03;11.10;;;6.40;;
76228;SDS011;65021;53.174;18.160;2023-08-21T03:15:30;14.80;;;7.00;;
76228;SDS011;65021;53.174;18.160;2023-08-21T03:17:56;13.50;;;6.80;;
76228;SDS011;65021;53.174;18.160;2023-08-21T03:20:23;11.80;;;6.40;;
76228;SDS011;65021;53.174;18.160;2023-08-21T03:22:50;11.80;;;6.60;;
76228;SDS011;65021;53.174;18.160;2023-08-21T03:25:16;9.70;;;4.90;;
76228;SDS011;65021;53.174;18.160;2023-08-21T03:27:43;10.30;;;6.40;;
76228;SDS011;65021;53.174;18.160;2023-08-21T03:30:11;12.60;;;6.60;;
76228;SDS011;65021;53.174;18.160;2023-08-21T03:35:07;11.30;;;5.90;;
76228;SDS011;65021;53.174;18.160;2023-08-21T03:37:34;16.10;;;6.60;;
76228;SDS011;65021;53.174;18.160;2023-08-21T03:40:01;9.70;;;6.00;;
76228;SDS011;65021;53.174;18.160;2023-08-21T03:42:31;9.80;;;6.00;;
76228;SDS011;65021;53.174;18.160;2023-08-21T03:44:57;12.00;;;6.30;;
76228;SDS011;65021;53.174;18.160;2023-08-21T03:47:24;9.70;;;5.70;;
76228;SDS011;65021;53.174;18.160;2023-08-21T03:49:50;11.10;;;5.20;;
76228;SDS011;65021;53.174;18.160;2023-08-21T03:52:17;10.40;;;5.30;;
76228;SDS011;65021;53.174;18.160;2023-08-21T03:54:43;9.60;;;5.10;;
76228;SDS011;65021;53.174;18.160;2023-08-21T03:57:10;9.40;;;5.40;;
76228;SDS011;65021;53.174;18.160;2023-08-21T03:59:37;11.60;;;5.00;;
76228;SDS011;65021;53.174;18.160;2023-08-21T04:02:03;13.30;;;5.90;;
76228;SDS011;65021;53.174;18.160;2023-08-21T04:04:30;8.70;;;5.00;;
76228;SDS011;65021;53.174;18.160;2023-08-21T04:06:57;9.00;;;5.10;;
76228;SDS011;65021;53.174;18.160;2023-08-21T04:09:23;12.40;;;5.60;;
76228;SDS011;65021;53.174;18.160;2023-08-21T04:11:50;8.90;;;4.10;;
76228;SDS011;65021;53.174;18.160;2023-08-21T04:14:16;11.90;;;5.70;;
76228;SDS011;65021;53.174;18.160;2023-08-21T04:16:43;11.30;;;6.60;;
76228;SDS011;65021;53.174;18.160;2023-08-21T04:19:09;11.00;;;5.80;;
76228;SDS011;65021;53.174;18.160;2023-08-21T04:21:36;9.70;;;5.80;;
76228;SDS011;65021;53.174;18.160;2023-08-21T04:24:02;10.10;;;5.20;;
76228;SDS011;65021;53.174;18.160;2023-08-21T04:26:29;8.20;;;4.50;;
76228;SDS011;65021;53.174;18.160;2023-08-21T04:28:56;9.50;;;5.00;;
76228;SDS011;65021;53.174;18.160;2023-08-21T04:31:23;8.60;;;4.70;;
76228;SDS011;65021;53.174;18.160;2023-08-21T04:33:49;10.40;;;4.20;;
76228;SDS011;65021;53.174;18.160;2023-08-21T04:36:17;8.40;;;4.30;;
76228;SDS011;65021;53.174;18.160;2023-08-21T04:38:43;8.50;;;5.20;;
76228;SDS011;65021;53.174;18.160;2023-08-21T04:41:10;10.30;;;5.00;;
76228;SDS011;65021;53.174;18.160;2023-08-21T04:43:37;8.40;;;4.10;;
76228;SDS011;65021;53.174;18.160;2023-08-21T04:46:04;9.50;;;4.20;;
76228;SDS011;65021;53.174;18.160;2023-08-21T04:48:31;7.80;;;3.40;;
76228;SDS011;65021;53.174;18.160;2023-08-21T04:50:58;9.10;;;4.30;;
76228;SDS011;65021;53.174;18.160;2023-08-21T04:53:24;7.50;;;3.80;;
76228;SDS011;65021;53.174;18.160;2023-08-21T04:55:51;6.40;;;3.40;;
76228;SDS011;65021;53.174;18.160;2023-08-21T04:58:17;9.90;;;3.90;;
76228;SDS011;65021;53.174;18.160;2023-08-21T05:00:44;8.30;;;3.90;;
76228;SDS011;65021;53.174;18.160;2023-08-21T05:03:12;7.10;;;3.80;;
76228;SDS011;65021;53.174;18.160;2023-08-21T05:05:39;7.00;;;3.50;;
76228;SDS011;65021;53.174;18.160;2023-08-21T05:08:05;6.50;;;3.10;;
76228;SDS011;65021;53.174;18.160;2023-08-21T05:10:32;6.10;;;3.10;;
76228;SDS011;65021;53.174;18.160;2023-08-21T05:12:58;7.10;;;3.10;;
76228;SDS011;65021;53.174;18.160;2023-08-21T05:15:25;10.90;;;3.60;;
76228;SDS011;65021;53.174;18.160;2023-08-21T05:17:52;6.80;;;3.20;;
76228;SDS011;65021;53.174;18.160;2023-08-21T05:20:18;6.10;;;3.20;;
76228;SDS011;65021;53.174;18.160;2023-08-21T05:22:45;6.90;;;3.40;;
76228;SDS011;65021;53.174;18.160;2023-08-21T05:25:11;7.50;;;3.20;;
76228;SDS011;65021;53.174;18.160;2023-08-21T05:27:38;5.80;;;3.10;;
76228;SDS011;65021;53.174;18.160;2023-08-21T05:30:05;5.80;;;2.80;;
76228;SDS011;65021;53.174;18.160;2023-08-21T05:32:32;5.70;;;3.10;;
76228;SDS011;65021;53.174;18.160;2023-08-21T05:34:58;6.70;;;3.20;;
76228;SDS011;65021;53.174;18.160;2023-08-21T05:37:25;4.60;;;2.60;;
76228;SDS011;65021;53.174;18.160;2023-08-21T05:39:53;5.70;;;2.50;;
76228;SDS011;65021;53.174;18.160;2023-08-21T05:42:19;7.20;;;2.50;;
76228;SDS011;65021;53.174;18.160;2023-08-21T05:44:46;9.50;;;3.40;;
76228;SDS011;65021;53.174;18.160;2023-08-21T05:47:12;4.40;;;2.00;;
76228;SDS011;65021;53.174;18.160;2023-08-21T05:49:39;6.80;;;2.80;;
76228;SDS011;65021;53.174;18.160;2023-08-21T05:52:05;5.80;;;2.30;;
76228;SDS011;65021;53.174;18.160;2023-08-21T05:54:32;5.80;;;2.70;;
76228;SDS011;65021;53.174;18.160;2023-08-21T05:56:58;5.80;;;2.40;;
76228;SDS011;65021;53.174;18.160;2023-08-21T05:59:31;5.20;;;2.70;;
76228;SDS011;65021;53.174;18.160;2023-08-21T06:01:59;6.70;;;2.60;;
76228;SDS011;65021;53.174;18.160;2023-08-21T06:04:26;5.00;;;2.20;;
76228;SDS011;65021;53.174;18.160;2023-08-21T06:06:53;5.10;;;2.30;;
76228;SDS011;65021;53.174;18.160;2023-08-21T06:09:19;7.90;;;3.00;;
76228;SDS011;65021;53.174;18.160;2023-08-21T06:11:46;7.20;;;2.80;;
76228;SDS011;65021;53.174;18.160;2023-08-21T06:14:13;5.20;;;2.30;;
76228;SDS011;65021;53.174;18.160;2023-08-21T06:16:39;5.40;;;2.10;;
76228;SDS011;65021;53.174;18.160;2023-08-21T06:19:06;5.40;;;2.10;;
76228;SDS011;65021;53.174;18.160;2023-08-21T06:21:33;5.10;;;2.20;;
76228;SDS011;65021;53.174;18.160;2023-08-21T06:23:59;6.10;;;2.70;;
76228;SDS011;65021;53.174;18.160;2023-08-21T06:26:26;4.90;;;2.50;;
76228;SDS011;65021;53.174;18.160;2023-08-21T06:28:53;4.60;;;2.30;;
76228;SDS011;65021;53.174;18.160;2023-08-21T06:31:19;7.70;;;2.70;;
76228;SDS011;65021;53.174;18.160;2023-08-21T06:33:46;4.80;;;2.20;;
76228;SDS011;65021;53.174;18.160;2023-08-21T06:36:13;6.60;;;2.60;;
76228;SDS011;65021;53.174;18.160;2023-08-21T06:38:39;4.80;;;2.60;;
76228;SDS011;65021;53.174;18.160;2023-08-21T06:41:06;3.90;;;1.60;;
76228;SDS011;65021;53.174;18.160;2023-08-21T06:43:32;6.70;;;2.50;;
76228;SDS011;65021;53.174;18.160;2023-08-21T06:45:59;4.10;;;2.20;;
76228;SDS011;65021;53.174;18.160;2023-08-21T06:48:25;4.70;;;2.40;;
76228;SDS011;65021;53.174;18.160;2023-08-21T06:50:53;5.10;;;2.40;;
76228;SDS011;65021;53.174;18.160;2023-08-21T06:53:19;6.40;;;2.10;;
76228;SDS011;65021;53.174;18.160;2023-08-21T06:55:46;4.90;;;2.30;;
76228;SDS011;65021;53.174;18.160;2023-08-21T06:58:13;4.80;;;2.00;;
76228;SDS011;65021;53.174;18.160;2023-08-21T07:00:40;4.50;;;2.30;;
76228;SDS011;65021;53.174;18.160;2023-08-21T07:03:06;5.60;;;2.00;;
76228;SDS011;65021;53.174;18.160;2023-08-21T07:05:34;3.80;;;1.50;;
76228;SDS011;65021;53.174;18.160;2023-08-21T07:08:00;6.50;;;1.70;;
76228;SDS011;65021;53.174;18.160;2023-08-21T07:10:27;4.90;;;1.50;;
76228;SDS011;65021;53.174;18.160;2023-08-21T07:12:53;5.00;;;2.00;;
76228;SDS011;65021;53.174;18.160;2023-08-21T07:15:20;5.20;;;2.20;;
76228;SDS011;65021;53.174;18.160;2023-08-21T07:17:47;6.30;;;2.00;;
76228;SDS011;65021;53.174;18.160;2023-08-21T07:20:13;5.80;;;1.90;;
76228;SDS011;65021;53.174;18.160;2023-08-21T07:22:40;5.20;;;2.20;;
76228;SDS011;65021;53.174;18.160;2023-08-21T07:25:07;4.10;;;1.60;;
76228;SDS011;65021;53.174;18.160;2023-08-21T07:27:34;5.20;;;2.20;;
76228;SDS011;65021;53.174;18.160;2023-08-21T07:30:00;5.00;;;2.00;;
76228;SDS011;65021;53.174;18.160;2023-08-21T07:32:27;5.50;;;1.90;;
76228;SDS011;65021;53.174;18.160;2023-08-21T07:34:53;5.70;;;2.20;;
76228;SDS011;65021;53.174;18.160;2023-08-21T07:37:20;4.30;;;1.50;;
76228;SDS011;65021;53.174;18.160;2023-08-21T07:39:47;4.30;;;1.70;;
76228;SDS011;65021;53.174;18.160;2023-08-21T07:42:13;8.10;;;1.90;;
76228;SDS011;65021;53.174;18.160;2023-08-21T07:44:40;4.80;;;1.90;;
76228;SDS011;65021;53.174;18.160;2023-08-21T07:47:07;4.80;;;1.90;;
76228;SDS011;65021;53.174;18.160;2023-08-21T07:49:33;5.30;;;2.00;;
76228;SDS011;65021;53.174;18.160;2023-08-21T07:52:00;4.70;;;1.50;;
76228;SDS011;65021;53.174;18.160;2023-08-21T07:54:26;3.70;;;1.80;;
76228;SDS011;65021;53.174;18.160;2023-08-21T07:56:53;4.20;;;1.50;;
76228;SDS011;65021;53.174;18.160;2023-08-21T07:59:19;3.20;;;1.30;;
76228;SDS011;65021;53.174;18.160;2023-08-21T08:01:46;4.10;;;1.80;;
76228;SDS011;65021;53.174;18.160;2023-08-21T08:04:12;5.90;;;2.00;;
76228;SDS011;65021;53.174;18.160;2023-08-21T08:06:39;4.60;;;1.60;;
76228;SDS011;65021;53.174;18.160;2023-08-21T08:09:05;4.70;;;1.70;;
76228;SDS011;65021;53.174;18.160;2023-08-21T08:11:32;3.20;;;0.80;;
76228;SDS011;65021;53.174;18.160;2023-08-21T08:13:59;3.10;;;1.20;;
76228;SDS011;65021;53.174;18.160;2023-08-21T08:16:26;4.10;;;1.40;;
76228;SDS011;65021;53.174;18.160;2023-08-21T08:18:52;4.70;;;1.50;;
76228;SDS011;65021;53.174;18.160;2023-08-21T08:21:19;4.60;;;1.40;;
76228;SDS011;65021;53.174;18.160;2023-08-21T08:23:45;4.40;;;1.50;;
76228;SDS011;65021;53.174;18.160;2023-08-21T08:26:12;2.90;;;1.30;;
76228;SDS011;65021;53.174;18.160;2023-08-21T08:28:38;6.00;;;1.50;;
76228;SDS011;65021;53.174;18.160;2023-08-21T08:31:05;5.00;;;1.50;;
76228;SDS011;65021;53.174;18.160;2023-08-21T08:33:32;5.20;;;1.60;;
76228;SDS011;65021;53.174;18.160;2023-08-21T08:35:58;4.90;;;1.40;;
76228;SDS011;65021;53.174;18.160;2023-08-21T08:38:25;5.60;;;1.50;;
76228;SDS011;65021;53.174;18.160;2023-08-21T08:40:51;2.80;;;1.10;;
76228;SDS011;65021;53.174;18.160;2023-08-21T08:43:21;3.60;;;1.10;;
76228;SDS011;65021;53.174;18.160;2023-08-21T08:45:52;3.50;;;1.10;;
76228;SDS011;65021;53.174;18.160;2023-08-21T08:48:20;3.60;;;1.20;;
76228;SDS011;65021;53.174;18.160;2023-08-21T08:50:48;3.80;;;1.20;;
76228;SDS011;65021;53.174;18.160;2023-08-21T08:53:17;4.10;;;1.10;;
76228;SDS011;65021;53.174;18.160;2023-08-21T08:55:45;3.60;;;1.30;;
76228;SDS011;65021;53.174;18.160;2023-08-21T08:58:11;3.20;;;1.30;;
76228;SDS011;65021;53.174;18.160;2023-08-21T09:00:38;4.40;;;1.50;;
76228;SDS011;65021;53.174;18.160;2023-08-21T09:03:05;3.80;;;1.40;;
76228;SDS011;65021;53.174;18.160;2023-08-21T09:05:33;3.40;;;1.30;;
76228;SDS011;65021;53.174;18.160;2023-08-21T09:10:33;4.60;;;1.40;;
76228;SDS011;65021;53.174;18.160;2023-08-21T09:13:00;5.00;;;1.60;;
76228;SDS011;65021;53.174;18.160;2023-08-21T09:15:28;6.20;;;1.20;;
76228;SDS011;65021;53.174;18.160;2023-08-21T09:17:56;3.60;;;1.50;;
76228;SDS011;65021;53.174;18.160;2023-08-21T09:20:22;3.80;;;1.30;;
76228;SDS011;65021;53.174;18.160;2023-08-21T09:22:55;5.80;;;1.30;;
76228;SDS011;65021;53.174;18.160;2023-08-21T09:25:23;3.10;;;1.10;;
76228;SDS011;65021;53.174;18.160;2023-08-21T09:27:52;4.20;;;1.10;;
76228;SDS011;65021;53.174;18.160;2023-08-21T09:30:22;4.40;;;1.20;;
76228;SDS011;65021;53.174;18.160;2023-08-21T09:32:52;4.40;;;1.50;;
76228;SDS011;65021;53.174;18.160;2023-08-21T09:35:21;3.10;;;1.10;;
76228;SDS011;65021;53.174;18.160;2023-08-21T09:37:49;3.40;;;1.10;;
76228;SDS011;65021;53.174;18.160;2023-08-21T09:40:19;3.10;;;0.90;;
76228;SDS011;65021;53.174;18.160;2023-08-21T09:42:54;4.70;;;1.00;;
76228;SDS011;65021;53.174;18.160;2023-08-21T09:45:22;6.60;;;1.30;;
76228;SDS011;65021;53.174;18.160;2023-08-21T09:47:52;3.30;;;1.00;;
76228;SDS011;65021;53.174;18.160;2023-08-21T09:50:20;3.10;;;1.00;;
76228;SDS011;65021;53.174;18.160;2023-08-21T09:52:48;1.90;;;0.70;;
76228;SDS011;65021;53.174;18.160;2023-08-21T09:55:16;3.50;;;1.00;;
76228;SDS011;65021;53.174;18.160;2023-08-21T09:57:44;3.80;;;1.10;;
76228;SDS011;65021;53.174;18.160;2023-08-21T10:00:11;3.30;;;0.90;;
76228;SDS011;65021;53.174;18.160;2023-08-21T10:02:49;4.20;;;1.10;;
76228;SDS011;65021;53.174;18.160;2023-08-21T10:05:17;3.60;;;1.00;;
76228;SDS011;65021;53.174;18.160;2023-08-21T10:07:47;3.10;;;1.00;;
76228;SDS011;65021;53.174;18.160;2023-08-21T10:10:16;2.30;;;0.80;;
76228;SDS011;65021;53.174;18.160;2023-08-21T10:12:43;3.00;;;0.60;;
76228;SDS011;65021;53.174;18.160;2023-08-21T10:15:10;2.80;;;0.70;;
76228;SDS011;65021;53.174;18.160;2023-08-21T10:17:37;4.30;;;1.20;;
76228;SDS011;65021;53.174;18.160;2023-08-21T10:20:05;2.50;;;0.80;;
76228;SDS011;65021;53.174;18.160;2023-08-21T10:25:17;4.10;;;1.20;;
76228;SDS011;65021;53.174;18.160;2023-08-21T10:27:51;4.70;;;1.00;;
76228;SDS011;65021;53.174;18.160;2023-08-21T10:30:20;3.50;;;1.30;;
76228;SDS011;65021;53.174;18.160;2023-08-21T10:32:49;2.30;;;0.80;;
76228;SDS011;65021;53.174;18.160;2023-08-21T10:35:19;3.30;;;1.10;;
76228;SDS011;65021;53.174;18.160;2023-08-21T10:41:05;4.70;;;1.00;;
76228;SDS011;65021;53.174;18.160;2023-08-21T10:43:37;3.10;;;1.00;;
76228;SDS011;65021;53.174;18.160;2023-08-21T10:46:04;3.50;;;1.20;;
76228;SDS011;65021;53.174;18.160;2023-08-21T10:48:31;4.00;;;1.20;;
76228;SDS011;65021;53.174;18.160;2023-08-21T10:50:59;5.10;;;1.30;;
76228;SDS011;65021;53.174;18.160;2023-08-21T10:53:29;3.00;;;1.20;;
76228;SDS011;65021;53.174;18.160;2023-08-21T10:55:57;3.20;;;1.20;;
76228;SDS011;65021;53.174;18.160;2023-08-21T10:58:27;5.30;;;1.10;;
76228;SDS011;65021;53.174;18.160;2023-08-21T11:00:57;4.30;;;1.00;;
76228;SDS011;65021;53.174;18.160;2023-08-21T11:03:24;4.60;;;1.30;;
76228;SDS011;65021;53.174;18.160;2023-08-21T11:06:07;4.90;;;1.20;;
76228;SDS011;65021;53.174;18.160;2023-08-21T11:08:35;2.80;;;1.10;;
76228;SDS011;65021;53.174;18.160;2023-08-21T11:11:04;3.20;;;0.90;;
76228;SDS011;65021;53.174;18.160;2023-08-21T11:13:32;3.50;;;1.10;;
76228;SDS011;65021;53.174;18.160;2023-08-21T11:16:02;3.00;;;1.20;;
76228;SDS011;65021;53.174;18.160;2023-08-21T11:18:31;5.60;;;1.30;;
76228;SDS011;65021;53.174;18.160;2023-08-21T11:21:05;4.80;;;1.20;;
76228;SDS011;65021;53.174;18.160;2023-08-21T11:23:43;4.40;;;1.30;;
76228;SDS011;65021;53.174;18.160;2023-08-21T11:26:10;3.70;;;1.20;;
76228;SDS011;65021;53.174;18.160;2023-08-21T11:28:38;4.10;;;1.30;;
76228;SDS011;65021;53.174;18.160;2023-08-21T11:31:05;4.50;;;1.20;;
76228;SDS011;65021;53.174;18.160;2023-08-21T11:33:32;3.80;;;1.30;;
76228;SDS011;65021;53.174;18.160;2023-08-21T11:35:59;3.30;;;1.00;;
76228;SDS011;65021;53.174;18.160;2023-08-21T11:38:26;4.10;;;1.40;;
76228;SDS011;65021;53.174;18.160;2023-08-21T11:40:54;3.80;;;1.20;;
76228;SDS011;65021;53.174;18.160;2023-08-21T11:43:33;3.50;;;1.20;;
76228;SDS011;65021;53.174;18.160;2023-08-21T11:46:07;3.90;;;1.30;;
76228;SDS011;65021;53.174;18.160;2023-08-21T11:48:36;4.20;;;1.30;;
76228;SDS011;65021;53.174;18.160;2023-08-21T11:51:04;4.20;;;1.30;;
76228;SDS011;65021;53.174;18.160;2023-08-21T11:53:35;5.90;;;1.30;;
76228;SDS011;65021;53.174;18.160;2023-08-21T11:56:02;2.80;;;0.90;;
76228;SDS011;65021;53.174;18.160;2023-08-21T11:58:37;6.60;;;1.70;;
76228;SDS011;65021;53.174;18.160;2023-08-21T12:01:07;3.90;;;1.60;;
76228;SDS011;65021;53.174;18.160;2023-08-21T12:03:37;3.10;;;1.00;;
76228;SDS011;65021;53.174;18.160;2023-08-21T12:06:06;4.00;;;1.20;;
76228;SDS011;65021;53.174;18.160;2023-08-21T12:08:33;4.10;;;1.50;;
76228;SDS011;65021;53.174;18.160;2023-08-21T12:11:00;5.40;;;1.20;;
76228;SDS011;65021;53.174;18.160;2023-08-21T12:13:26;3.70;;;1.10;;
76228;SDS011;65021;53.174;18.160;2023-08-21T12:15:53;4.40;;;1.50;;
76228;SDS011;65021;53.174;18.160;2023-08-21T12:18:20;6.00;;;1.50;;
76228;SDS011;65021;53.174;18.160;2023-08-21T12:20:46;4.10;;;1.20;;
76228;SDS011;65021;53.174;18.160;2023-08-21T12:23:13;4.40;;;1.30;;
76228;SDS011;65021;53.174;18.160;2023-08-21T12:25:39;5.30;;;1.50;;
76228;SDS011;65021;53.174;18.160;2023-08-21T12:28:06;3.60;;;1.30;;
76228;SDS011;65021;53.174;18.160;2023-08-21T12:30:33;5.90;;;1.50;;
76228;SDS011;65021;53.174;18.160;2023-08-21T12:32:59;5.10;;;1.30;;
76228;SDS011;65021;53.174;18.160;2023-08-21T12:35:26;3.80;;;1.10;;
76228;SDS011;65021;53.174;18.160;2023-08-21T12:37:56;4.40;;;1.20;;
76228;SDS011;65021;53.174;18.160;2023-08-21T12:40:24;5.60;;;1.30;;
76228;SDS011;65021;53.174;18.160;2023-08-21T12:42:51;5.20;;;1.50;;
76228;SDS011;65021;53.174;18.160;2023-08-21T12:45:18;4.40;;;1.30;;
76228;SDS011;65021;53.174;18.160;2023-08-21T12:47:44;4.60;;;1.50;;
76228;SDS011;65021;53.174;18.160;2023-08-21T12:50:11;4.90;;;1.50;;
76228;SDS011;65021;53.174;18.160;2023-08-21T12:52:37;4.40;;;1.30;;
76228;SDS011;65021;53.174;18.160;2023-08-21T12:55:05;4.30;;;1.40;;
76228;SDS011;65021;53.174;18.160;2023-08-21T12:57:32;3.40;;;1.50;;
76228;SDS011;65021;53.174;18.160;2023-08-21T12:59:59;5.20;;;1.70;;
76228;SDS011;65021;53.174;18.160;2023-08-21T13:02:25;4.70;;;1.70;;
76228;SDS011;65021;53.174;18.160;2023-08-21T13:04:53;4.90;;;1.50;;
76228;SDS011;65021;53.174;18.160;2023-08-21T13:07:20;4.70;;;1.60;;
76228;SDS011;65021;53.174;18.160;2023-08-21T13:09:46;3.90;;;1.30;;
76228;SDS011;65021;53.174;18.160;2023-08-21T13:12:13;5.10;;;1.60;;
76228;SDS011;65021;53.174;18.160;2023-08-21T13:14:39;2.70;;;1.00;;
76228;SDS011;65021;53.174;18.160;2023-08-21T13:17:07;6.30;;;1.90;;
76228;SDS011;65021;53.174;18.160;2023-08-21T13:19:33;4.30;;;1.50;;
76228;SDS011;65021;53.174;18.160;2023-08-21T13:22:00;4.20;;;1.30;;
76228;SDS011;65021;53.174;18.160;2023-08-21T13:24:26;3.40;;;1.30;;
76228;SDS011;65021;53.174;18.160;2023-08-21T13:26:54;4.70;;;1.20;;
76228;SDS011;65021;53.174;18.160;2023-08-21T13:29:24;3.60;;;1.30;;
76228;SDS011;65021;53.174;18.160;2023-08-21T13:31:50;5.30;;;1.50;;
76228;SDS011;65021;53.174;18.160;2023-08-21T13:34:17;5.60;;;1.60;;
76228;SDS011;65021;53.174;18.160;2023-08-21T13:36:43;5.00;;;1.60;;
76228;SDS011;65021;53.174;18.160;2023-08-21T13:39:10;5.60;;;1.50;;
76228;SDS011;65021;53.174;18.160;2023-08-21T13:41:39;5.10;;;1.60;;
76228;SDS011;65021;53.174;18.160;2023-08-21T13:44:05;4.40;;;1.60;;
76228;SDS011;65021;53.174;18.160;2023-08-21T13:46:32;3.60;;;1.30;;
76228;SDS011;65021;53.174;18.160;2023-08-21T13:49:02;18.80;;;3.40;;
76228;SDS011;65021;53.174;18.160;2023-08-21T13:51:28;4.40;;;1.60;;
76228;SDS011;65021;53.174;18.160;2023-08-21T13:53:55;4.90;;;1.40;;
76228;SDS011;65021;53.174;18.160;2023-08-21T13:56:21;4.10;;;1.60;;
76228;SDS011;65021;53.174;18.160;2023-08-21T13:58:48;5.30;;;1.50;;
76228;SDS011;65021;53.174;18.160;2023-08-21T14:01:14;5.70;;;1.60;;
76228;SDS011;65021;53.174;18.160;2023-08-21T14:03:41;5.50;;;1.80;;
76228;SDS011;65021;53.174;18.160;2023-08-21T14:06:08;4.50;;;1.50;;
76228;SDS011;65021;53.174;18.160;2023-08-21T14:08:37;6.40;;;2.00;;
76228;SDS011;65021;53.174;18.160;2023-08-21T14:11:04;5.20;;;1.40;;
76228;SDS011;65021;53.174;18.160;2023-08-21T14:13:30;9.40;;;2.00;;
76228;SDS011;65021;53.174;18.160;2023-08-21T14:15:57;6.50;;;2.10;;
76228;SDS011;65021;53.174;18.160;2023-08-21T14:18:24;4.20;;;1.40;;
76228;SDS011;65021;53.174;18.160;2023-08-21T14:20:50;4.10;;;1.60;;
76228;SDS011;65021;53.174;18.160;2023-08-21T14:23:16;4.40;;;1.50;;
76228;SDS011;65021;53.174;18.160;2023-08-21T14:25:43;5.30;;;1.80;;
76228;SDS011;65021;53.174;18.160;2023-08-21T14:28:10;5.50;;;1.80;;
76228;SDS011;65021;53.174;18.160;2023-08-21T14:30:36;4.50;;;1.60;;
76228;SDS011;65021;53.174;18.160;2023-08-21T14:33:03;5.30;;;2.00;;
76228;SDS011;65021;53.174;18.160;2023-08-21T14:35:30;5.10;;;1.70;;
76228;SDS011;65021;53.174;18.160;2023-08-21T14:37:56;14.10;;;3.00;;
76228;SDS011;65021;53.174;18.160;2023-08-21T14:40:23;7.30;;;1.70;;
76228;SDS011;65021;53.174;18.160;2023-08-21T14:42:49;8.10;;;2.10;;
76228;SDS011;65021;53.174;18.160;2023-08-21T14:45:16;5.80;;;1.80;;
76228;SDS011;65021;53.174;18.160;2023-08-21T14:47:43;5.70;;;2.10;;